createdAt,value
2019-05-30T00:00:44.787Z,1022.67
2019-05-30T00:01:45.360Z,1022.66
2019-05-30T00:02:45.934Z,1022.68
2019-05-30T00:03:46.505Z,1022.63
2019-05-30T00:04:47.077Z,1022.60
2019-05-30T00:05:47.648Z,1022.62
2019-05-30T00:06:48.232Z,1022.61
2019-05-30T00:07:48.837Z,1022.60
2019-05-30T00:08:49.408Z,1022.67
2019-05-30T00:09:49.980Z,1022.61
2019-05-30T00:10:50.553Z,1022.70
2019-05-30T00:11:51.132Z,1022.72
2019-05-30T00:12:51.699Z,1022.74
2019-05-30T00:13:52.270Z,1022.73
2019-05-30T00:14:52.842Z,1022.67
2019-05-30T00:15:54.588Z,1022.72
2019-05-30T00:16:54.980Z,1022.67
2019-05-30T00:17:56.642Z,1022.69
2019-05-30T00:18:56.629Z,1022.63
2019-05-30T00:19:56.819Z,1022.65
2019-05-30T00:20:58.653Z,1022.54
2019-05-30T00:21:58.920Z,1022.54
2019-05-30T00:23:00.918Z,1022.68
2019-05-30T00:24:00.148Z,1022.60
2019-05-30T00:25:00.720Z,1022.58
2019-05-30T00:26:01.422Z,1022.59
2019-05-30T00:27:02.423Z,1022.57
2019-05-30T00:28:05.165Z,1022.58
2019-05-30T00:29:04.509Z,1022.57
2019-05-30T00:30:05.119Z,1022.56
2019-05-30T00:31:06.629Z,1022.50
2019-05-30T00:32:06.297Z,1022.53
2019-05-30T00:33:07.114Z,1022.51
2019-05-30T00:34:07.692Z,1022.54
2019-05-30T00:35:08.264Z,1022.57
2019-05-30T00:36:08.838Z,1022.57
2019-05-30T00:37:09.428Z,1022.55
2019-05-30T00:38:10.028Z,1022.51
2019-05-30T00:39:10.628Z,1022.58
2019-05-30T00:40:11.229Z,1022.55
2019-05-30T00:41:11.833Z,1022.51
2019-05-30T00:42:12.410Z,1022.48
2019-05-30T00:43:13.035Z,1022.49
2019-05-30T00:44:13.635Z,1022.49
2019-05-30T00:45:21.009Z,1022.48
2019-05-30T00:46:15.780Z,1022.49
2019-05-30T00:47:16.378Z,1022.50
2019-05-30T00:48:16.983Z,1022.48
2019-05-30T00:49:17.583Z,1022.48
2019-05-30T00:50:18.154Z,1022.44
2019-05-30T00:51:18.729Z,1022.49
2019-05-30T00:52:19.343Z,1022.45
2019-05-30T00:53:19.915Z,1022.51
2019-05-30T00:54:20.532Z,1022.42
2019-05-30T00:55:21.103Z,1022.43
2019-05-30T00:56:21.675Z,1022.44
2019-05-30T00:57:22.255Z,1022.46
2019-05-30T00:58:22.867Z,1022.43
2019-05-30T00:59:23.440Z,1022.44
2019-05-30T01:00:41.661Z,1022.49
2019-05-30T01:01:25.580Z,1022.44
2019-05-30T01:02:26.152Z,1022.45
2019-05-30T01:03:26.762Z,1022.35
2019-05-30T01:04:27.340Z,1022.36
2019-05-30T01:05:27.912Z,1022.32
2019-05-30T01:06:28.511Z,1022.35
2019-05-30T01:07:29.100Z,1022.44
2019-05-30T01:08:29.671Z,1022.35
2019-05-30T01:09:30.241Z,1022.44
2019-05-30T01:10:30.821Z,1022.40
2019-05-30T01:11:31.389Z,1022.35
2019-05-30T01:12:31.959Z,1022.30
2019-05-30T01:13:32.531Z,1022.41
2019-05-30T01:14:33.132Z,1022.32
2019-05-30T01:15:33.724Z,1022.38
2019-05-30T01:16:34.332Z,1022.31
2019-05-30T01:17:34.934Z,1022.26
2019-05-30T01:18:35.523Z,1022.31
2019-05-30T01:19:36.105Z,1022.25
2019-05-30T01:20:36.912Z,1022.32
2019-05-30T01:21:37.492Z,1022.31
2019-05-30T01:22:38.091Z,1022.31
2019-05-30T01:23:38.695Z,1022.28
2019-05-30T01:24:39.293Z,1022.32
2019-05-30T01:25:39.929Z,1022.31
2019-05-30T01:26:40.530Z,1022.31
2019-05-30T01:27:41.329Z,1022.32
2019-05-30T01:28:41.902Z,1022.28
2019-05-30T01:29:42.523Z,1022.26
2019-05-30T01:30:58.648Z,1022.23
2019-05-30T01:31:43.739Z,1022.24
2019-05-30T01:32:44.344Z,1022.19
2019-05-30T01:33:44.944Z,1022.24
2019-05-30T01:34:45.545Z,1022.23
2019-05-30T01:35:46.175Z,1022.27
2019-05-30T01:36:46.777Z,1022.31
2019-05-30T01:37:47.390Z,1022.24
2019-05-30T01:38:48.007Z,1022.25
2019-05-30T01:39:48.604Z,1022.33
2019-05-30T01:40:49.399Z,1022.31
2019-05-30T01:41:50.029Z,1022.21
2019-05-30T01:42:50.681Z,1022.33
2019-05-30T01:43:51.239Z,1022.21
2019-05-30T01:44:51.812Z,1022.31
2019-05-30T01:45:52.394Z,1022.19
2019-05-30T01:46:53.012Z,1022.27
2019-05-30T01:47:53.636Z,1022.23
2019-05-30T01:48:54.268Z,1022.19
2019-05-30T01:49:54.852Z,1022.20
2019-05-30T01:50:55.696Z,1022.21
2019-05-30T01:51:56.491Z,1022.17
2019-05-30T01:52:58.365Z,1022.16
2019-05-30T01:53:58.336Z,1022.16
2019-05-30T01:54:58.559Z,1022.23
2019-05-30T01:56:00.542Z,1022.18
2019-05-30T01:57:00.475Z,1022.17
2019-05-30T01:58:01.502Z,1022.16
2019-05-30T01:59:01.058Z,1022.14
2019-05-30T02:00:06.397Z,1022.22
2019-05-30T02:02:17.704Z,1022.18
2019-05-30T02:03:18.290Z,1022.15
2019-05-30T02:04:18.908Z,1022.13
2019-05-30T02:05:19.521Z,1022.14
2019-05-30T02:06:20.112Z,1022.10
2019-05-30T02:07:20.711Z,1022.11
2019-05-30T02:08:21.283Z,1022.15
2019-05-30T02:09:21.892Z,1022.09
2019-05-30T02:10:22.477Z,1022.15
2019-05-30T02:11:23.170Z,1022.18
2019-05-30T02:12:23.918Z,1022.21
2019-05-30T02:13:24.523Z,1022.18
2019-05-30T02:14:25.150Z,1022.18
2019-05-30T02:15:25.759Z,1022.15
2019-05-30T02:16:26.368Z,1022.16
2019-05-30T02:17:26.961Z,1022.28
2019-05-30T02:18:27.573Z,1022.15
2019-05-30T02:19:28.211Z,1022.26
2019-05-30T02:20:28.793Z,1022.22
2019-05-30T02:21:29.409Z,1022.27
2019-05-30T02:22:29.981Z,1022.22
2019-05-30T02:23:30.556Z,1022.23
2019-05-30T02:24:31.174Z,1022.18
2019-05-30T02:25:31.805Z,1022.17
2019-05-30T02:26:32.629Z,1022.12
2019-05-30T02:28:48.654Z,1022.12
2019-05-30T02:29:49.256Z,1022.14
2019-05-30T02:30:49.835Z,1022.09
2019-05-30T02:31:50.415Z,1022.10
2019-05-30T02:32:51.017Z,1022.05
2019-05-30T02:33:51.590Z,1022.11
2019-05-30T02:34:52.164Z,1022.14
2019-05-30T02:35:52.803Z,1022.11
2019-05-30T02:36:53.428Z,1022.02
2019-05-30T02:37:54.015Z,1022.07
2019-05-30T02:38:54.589Z,1022.09
2019-05-30T02:40:00.090Z,1022.08
2019-05-30T02:40:56.735Z,1022.05
2019-05-30T02:41:57.338Z,1022.03
2019-05-30T02:42:57.912Z,1022.03
2019-05-30T02:43:58.487Z,1022.10
2019-05-30T02:44:59.061Z,1022.08
2019-05-30T02:46:00.947Z,1022.10
2019-05-30T02:47:01.583Z,1022.08
2019-05-30T02:48:03.198Z,1022.18
2019-05-30T02:49:04.909Z,1022.01
2019-05-30T02:50:06.134Z,1022.07
2019-05-30T02:51:07.923Z,1022.01
2019-05-30T02:52:08.617Z,1022.07
2019-05-30T02:53:10.949Z,1022.03
2019-05-30T02:54:12.690Z,1022.06
2019-05-30T02:55:13.472Z,1022.04
2019-05-30T02:56:13.888Z,1022.14
2019-05-30T02:57:14.458Z,1022.11
2019-05-30T02:58:15.031Z,1022.11
2019-05-30T02:59:15.607Z,1022.13
2019-05-30T03:00:17.718Z,1022.09
2019-05-30T03:01:17.771Z,1022.11
2019-05-30T03:02:18.351Z,1022.07
2019-05-30T03:03:18.920Z,1022.12
2019-05-30T03:04:19.495Z,1022.07
2019-05-30T03:05:20.078Z,1022.16
2019-05-30T03:06:20.639Z,1022.12
2019-05-30T03:07:21.212Z,1022.12
2019-05-30T03:08:21.788Z,1022.13
2019-05-30T03:09:22.365Z,1022.15
2019-05-30T03:10:22.928Z,1022.09
2019-05-30T03:11:23.508Z,1022.14
2019-05-30T03:12:24.114Z,1022.08
2019-05-30T03:13:24.686Z,1022.11
2019-05-30T03:14:25.264Z,1022.16
2019-05-30T03:15:25.831Z,1022.20
2019-05-30T03:16:26.405Z,1022.16
2019-05-30T03:17:26.991Z,1022.17
2019-05-30T03:18:27.549Z,1022.18
2019-05-30T03:19:28.120Z,1022.16
2019-05-30T03:20:28.704Z,1022.14
2019-05-30T03:21:29.265Z,1022.18
2019-05-30T03:22:29.838Z,1022.14
2019-05-30T03:23:30.410Z,1022.07
2019-05-30T03:24:30.987Z,1022.07
2019-05-30T03:25:31.557Z,1022.12
2019-05-30T03:26:32.128Z,1022.11
2019-05-30T03:27:32.701Z,1022.15
2019-05-30T03:28:33.273Z,1022.14
2019-05-30T03:29:33.847Z,1022.12
2019-05-30T03:30:34.425Z,1022.12
2019-05-30T03:31:34.987Z,1022.16
2019-05-30T03:33:41.602Z,1022.13
2019-05-30T03:34:37.745Z,1022.22
2019-05-30T03:35:42.710Z,1022.20
2019-05-30T03:36:38.916Z,1022.20
2019-05-30T03:37:39.523Z,1022.18
2019-05-30T03:38:40.098Z,1022.21
2019-05-30T03:39:40.671Z,1022.22
2019-05-30T03:40:41.243Z,1022.23
2019-05-30T03:41:41.814Z,1022.30
2019-05-30T03:42:42.388Z,1022.23
2019-05-30T03:43:42.961Z,1022.17
2019-05-30T03:44:43.538Z,1022.17
2019-05-30T03:45:44.151Z,1022.21
2019-05-30T03:46:44.721Z,1022.14
2019-05-30T03:47:45.295Z,1022.27
2019-05-30T03:48:45.866Z,1022.21
2019-05-30T03:49:46.439Z,1022.31
2019-05-30T03:50:47.015Z,1022.31
2019-05-30T03:51:47.586Z,1022.31
2019-05-30T03:52:48.162Z,1022.25
2019-05-30T03:53:48.775Z,1022.31
2019-05-30T03:54:49.346Z,1022.30
2019-05-30T03:55:49.918Z,1022.37
2019-05-30T03:56:50.499Z,1022.35
2019-05-30T03:57:51.064Z,1022.33
2019-05-30T03:58:51.634Z,1022.33
2019-05-30T03:59:52.222Z,1022.31
2019-05-30T04:00:52.826Z,1022.35
2019-05-30T04:01:53.438Z,1022.29
2019-05-30T04:02:58.160Z,1022.42
2019-05-30T04:03:54.620Z,1022.34
2019-05-30T04:04:55.193Z,1022.28
2019-05-30T04:05:55.768Z,1022.34
2019-05-30T04:06:56.337Z,1022.33
2019-05-30T04:07:56.908Z,1022.28
2019-05-30T04:08:57.481Z,1022.27
2019-05-30T04:09:58.051Z,1022.28
2019-05-30T04:10:58.626Z,1022.30
2019-05-30T04:11:59.200Z,1022.28
2019-05-30T04:12:59.770Z,1022.38
2019-05-30T04:14:00.342Z,1022.36
2019-05-30T04:15:00.916Z,1022.31
2019-05-30T04:16:01.488Z,1022.37
2019-05-30T04:17:02.067Z,1022.37
2019-05-30T04:18:02.680Z,1022.34
2019-05-30T04:19:03.252Z,1022.45
2019-05-30T04:20:03.826Z,1022.36
2019-05-30T04:21:04.395Z,1022.40
2019-05-30T04:22:04.968Z,1022.49
2019-05-30T04:23:05.540Z,1022.43
2019-05-30T04:24:07.280Z,1022.45
2019-05-30T04:25:08.569Z,1022.51
2019-05-30T04:26:09.678Z,1022.52
2019-05-30T04:27:12.042Z,1022.52
2019-05-30T04:28:14.005Z,1022.40
2019-05-30T04:29:15.002Z,1022.50
2019-05-30T04:30:16.315Z,1022.52
2019-05-30T04:31:17.723Z,1022.50
2019-05-30T04:32:18.700Z,1022.52
2019-05-30T04:33:31.634Z,1022.52
2019-05-30T04:34:19.760Z,1022.48
2019-05-30T04:35:20.306Z,1022.51
2019-05-30T04:36:20.873Z,1022.57
2019-05-30T04:37:21.444Z,1022.50
2019-05-30T04:38:22.022Z,1022.60
2019-05-30T04:39:22.613Z,1022.51
2019-05-30T04:40:23.208Z,1022.51
2019-05-30T04:41:23.791Z,1022.51
2019-05-30T04:42:24.360Z,1022.58
2019-05-30T04:43:24.968Z,1022.52
2019-05-30T04:44:25.563Z,1022.55
2019-05-30T04:45:27.956Z,1022.57
2019-05-30T04:46:27.698Z,1022.57
2019-05-30T04:47:28.271Z,1022.54
2019-05-30T04:48:28.846Z,1022.63
2019-05-30T04:49:29.453Z,1022.51
2019-05-30T04:50:30.000Z,1022.58
2019-05-30T04:51:30.578Z,1022.57
2019-05-30T04:52:31.189Z,1022.61
2019-05-30T04:53:31.802Z,1022.62
2019-05-30T04:54:32.376Z,1022.61
2019-05-30T04:55:32.990Z,1022.61
2019-05-30T04:56:33.580Z,1022.61
2019-05-30T04:57:34.176Z,1022.59
2019-05-30T04:58:34.753Z,1022.58
2019-05-30T04:59:35.360Z,1022.62
2019-05-30T05:00:35.936Z,1022.54
2019-05-30T05:01:36.510Z,1022.57
2019-05-30T05:02:37.081Z,1022.61
2019-05-30T05:03:45.967Z,1022.59
2019-05-30T05:04:39.218Z,1022.64
2019-05-30T05:05:39.789Z,1022.62
2019-05-30T05:06:40.373Z,1022.63
2019-05-30T05:07:40.935Z,1022.61
2019-05-30T05:08:41.510Z,1022.65
2019-05-30T05:09:42.129Z,1022.64
2019-05-30T05:10:42.694Z,1022.64
2019-05-30T05:11:43.278Z,1022.66
2019-05-30T05:12:43.841Z,1022.62
2019-05-30T05:13:44.414Z,1022.61
2019-05-30T05:14:44.991Z,1022.68
2019-05-30T05:15:45.558Z,1022.64
2019-05-30T05:16:46.132Z,1022.61
2019-05-30T05:17:46.707Z,1022.71
2019-05-30T05:18:47.279Z,1022.71
2019-05-30T05:19:47.852Z,1022.69
2019-05-30T05:20:48.424Z,1022.75
2019-05-30T05:21:48.997Z,1022.69
2019-05-30T05:22:49.568Z,1022.69
2019-05-30T05:23:50.148Z,1022.73
2019-05-30T05:24:50.715Z,1022.71
2019-05-30T05:26:00.294Z,1022.75
2019-05-30T05:26:52.859Z,1022.75
2019-05-30T05:27:53.473Z,1022.75
2019-05-30T05:28:54.044Z,1022.71
2019-05-30T05:29:54.615Z,1022.73
2019-05-30T05:30:55.195Z,1022.81
2019-05-30T05:31:55.768Z,1022.73
2019-05-30T05:32:56.383Z,1022.79
2019-05-30T05:33:57.396Z,1022.73
2019-05-30T05:34:57.558Z,1022.73
2019-05-30T05:35:58.132Z,1022.79
2019-05-30T05:36:58.747Z,1022.87
2019-05-30T05:37:59.319Z,1022.80
2019-05-30T05:38:59.891Z,1022.79
2019-05-30T05:40:00.523Z,1022.91
2019-05-30T05:41:01.050Z,1022.87
2019-05-30T05:42:01.623Z,1022.82
2019-05-30T05:43:02.195Z,1022.73
2019-05-30T05:44:02.766Z,1022.81
2019-05-30T05:45:03.341Z,1022.85
2019-05-30T05:46:03.914Z,1022.81
2019-05-30T05:47:04.490Z,1022.85
2019-05-30T05:48:05.124Z,1022.86
2019-05-30T05:49:05.648Z,1022.90
2019-05-30T05:50:06.220Z,1022.86
2019-05-30T05:51:06.793Z,1022.85
2019-05-30T05:52:07.364Z,1022.81
2019-05-30T05:53:07.938Z,1022.87
2019-05-30T05:54:08.508Z,1022.84
2019-05-30T05:55:09.080Z,1022.92
2019-05-30T05:56:09.673Z,1022.87
2019-05-30T05:57:10.269Z,1022.94
2019-05-30T05:58:10.843Z,1022.90
2019-05-30T05:59:11.414Z,1022.87
2019-05-30T06:00:11.986Z,1022.91
2019-05-30T06:01:12.559Z,1022.90
2019-05-30T06:02:13.158Z,1022.86
2019-05-30T06:03:13.708Z,1022.91
2019-05-30T06:04:14.281Z,1022.95
2019-05-30T06:05:15.910Z,1022.90
2019-05-30T06:06:17.256Z,1022.95
2019-05-30T06:07:18.206Z,1022.93
2019-05-30T06:08:19.488Z,1022.95
2019-05-30T06:09:20.602Z,1022.94
2019-05-30T06:10:21.729Z,1022.94
2019-05-30T06:11:22.746Z,1022.92
2019-05-30T06:12:23.832Z,1022.90
2019-05-30T06:13:24.832Z,1022.92
2019-05-30T06:14:26.227Z,1022.87
2019-05-30T06:15:26.808Z,1022.89
2019-05-30T06:16:28.406Z,1022.94
2019-05-30T06:17:29.261Z,1022.90
2019-05-30T06:18:29.555Z,1022.94
2019-05-30T06:19:45.328Z,1023.02
2019-05-30T06:20:31.692Z,1022.99
2019-05-30T06:21:32.265Z,1022.96
2019-05-30T06:22:32.839Z,1022.96
2019-05-30T06:23:33.413Z,1023.07
2019-05-30T06:24:34.026Z,1023.06
2019-05-30T06:25:34.602Z,1023.07
2019-05-30T06:26:35.172Z,1023.08
2019-05-30T06:27:35.744Z,1023.10
2019-05-30T06:28:36.319Z,1023.07
2019-05-30T06:29:36.891Z,1023.07
2019-05-30T06:30:37.464Z,1023.08
2019-05-30T06:31:38.038Z,1023.11
2019-05-30T06:32:38.612Z,1023.14
2019-05-30T06:33:39.185Z,1023.25
2019-05-30T06:34:40.239Z,1023.19
2019-05-30T06:35:40.864Z,1023.17
2019-05-30T06:36:41.466Z,1023.10
2019-05-30T06:37:42.081Z,1023.21
2019-05-30T06:38:42.694Z,1023.17
2019-05-30T06:39:43.275Z,1023.19
2019-05-30T06:40:43.843Z,1023.25
2019-05-30T06:41:44.418Z,1023.21
2019-05-30T06:42:45.040Z,1023.16
2019-05-30T06:43:45.614Z,1023.28
2019-05-30T06:44:46.185Z,1023.25
2019-05-30T06:45:46.757Z,1023.18
2019-05-30T06:46:47.330Z,1023.26
2019-05-30T06:47:47.904Z,1023.29
2019-05-30T06:48:48.476Z,1023.24
2019-05-30T06:49:49.098Z,1023.27
2019-05-30T06:50:49.664Z,1023.30
2019-05-30T06:51:50.246Z,1023.31
2019-05-30T06:52:50.850Z,1023.30
2019-05-30T06:53:51.390Z,1023.24
2019-05-30T06:54:51.962Z,1023.25
2019-05-30T06:55:52.535Z,1023.31
2019-05-30T06:56:53.106Z,1023.30
2019-05-30T06:57:53.681Z,1023.31
2019-05-30T06:58:54.252Z,1023.32
2019-05-30T06:59:54.823Z,1023.23
2019-05-30T07:00:55.405Z,1023.30
2019-05-30T07:01:55.967Z,1023.33
2019-05-30T07:02:56.614Z,1023.33
2019-05-30T07:03:57.334Z,1023.33
2019-05-30T07:04:58.420Z,1023.39
2019-05-30T07:05:59.603Z,1023.31
2019-05-30T07:07:00.698Z,1023.39
2019-05-30T07:08:01.429Z,1023.39
2019-05-30T07:09:02.004Z,1023.39
2019-05-30T07:10:02.576Z,1023.38
2019-05-30T07:11:03.148Z,1023.41
2019-05-30T07:12:03.723Z,1023.31
2019-05-30T07:13:04.297Z,1023.44
2019-05-30T07:14:04.866Z,1023.44
2019-05-30T07:15:05.439Z,1023.47
2019-05-30T07:16:06.012Z,1023.42
2019-05-30T07:17:06.586Z,1023.47
2019-05-30T07:18:07.182Z,1023.47
2019-05-30T07:19:07.775Z,1023.47
2019-05-30T07:20:08.348Z,1023.48
2019-05-30T07:21:08.964Z,1023.47
2019-05-30T07:22:09.536Z,1023.47
2019-05-30T07:23:10.112Z,1023.47
2019-05-30T07:24:10.687Z,1023.46
2019-05-30T07:25:11.302Z,1023.40
2019-05-30T07:26:11.874Z,1023.47
2019-05-30T07:27:12.487Z,1023.46
2019-05-30T07:28:13.064Z,1023.51
2019-05-30T07:29:13.640Z,1023.47
2019-05-30T07:30:14.235Z,1023.41
2019-05-30T07:31:30.192Z,1023.49
2019-05-30T07:32:32.060Z,1023.50
2019-05-30T07:33:33.007Z,1023.54
2019-05-30T07:34:34.288Z,1023.51
2019-05-30T07:35:34.846Z,1023.53
2019-05-30T07:36:35.452Z,1023.54
2019-05-30T07:37:36.029Z,1023.54
2019-05-30T07:38:36.594Z,1023.58
2019-05-30T07:39:37.600Z,1023.51
2019-05-30T07:40:38.245Z,1023.54
2019-05-30T07:41:38.821Z,1023.54
2019-05-30T07:42:39.391Z,1023.59
2019-05-30T07:43:39.967Z,1023.60
2019-05-30T07:44:40.583Z,1023.53
2019-05-30T07:45:41.155Z,1023.52
2019-05-30T07:46:41.728Z,1023.50
2019-05-30T07:47:42.300Z,1023.51
2019-05-30T07:48:42.872Z,1023.49
2019-05-30T07:49:43.445Z,1023.56
2019-05-30T07:50:44.016Z,1023.56
2019-05-30T07:51:44.589Z,1023.54
2019-05-30T07:52:45.161Z,1023.49
2019-05-30T07:53:45.733Z,1023.56
2019-05-30T07:54:46.306Z,1023.49
2019-05-30T07:55:46.879Z,1023.50
2019-05-30T07:56:47.452Z,1023.54
2019-05-30T07:57:48.047Z,1023.50
2019-05-30T07:58:48.642Z,1023.50
2019-05-30T07:59:49.214Z,1023.52
2019-05-30T08:00:49.786Z,1023.57
2019-05-30T08:01:50.361Z,1023.54
2019-05-30T08:02:50.935Z,1023.52
2019-05-30T08:03:51.513Z,1023.56
2019-05-30T08:04:52.087Z,1023.59
2019-05-30T08:05:52.661Z,1023.54
2019-05-30T08:06:53.234Z,1023.61
2019-05-30T08:07:53.811Z,1023.64
2019-05-30T08:08:54.387Z,1023.62
2019-05-30T08:09:54.963Z,1023.71
2019-05-30T08:11:08.422Z,1023.68
2019-05-30T08:11:57.102Z,1023.66
2019-05-30T08:12:57.677Z,1023.57
2019-05-30T08:13:58.266Z,1023.65
2019-05-30T08:14:58.865Z,1023.65
2019-05-30T08:15:59.443Z,1023.67
2019-05-30T08:17:00.013Z,1023.69
2019-05-30T08:18:00.588Z,1023.65
2019-05-30T08:19:01.203Z,1023.70
2019-05-30T08:20:01.775Z,1023.63
2019-05-30T08:21:02.346Z,1023.65
2019-05-30T08:22:02.935Z,1023.69
2019-05-30T08:23:03.537Z,1023.70
2019-05-30T08:24:04.110Z,1023.75
2019-05-30T08:25:04.683Z,1023.69
2019-05-30T08:26:05.256Z,1023.64
2019-05-30T08:27:05.831Z,1023.77
2019-05-30T08:28:06.405Z,1023.77
2019-05-30T08:29:07.021Z,1023.72
2019-05-30T08:30:07.597Z,1023.74
2019-05-30T08:31:08.213Z,1023.72
2019-05-30T08:32:08.790Z,1023.73
2019-05-30T08:33:09.363Z,1023.82
2019-05-30T08:34:09.937Z,1023.73
2019-05-30T08:35:10.512Z,1023.66
2019-05-30T08:36:11.192Z,1023.72
2019-05-30T08:37:11.727Z,1023.78
2019-05-30T08:38:12.302Z,1023.76
2019-05-30T08:39:12.950Z,1023.70
2019-05-30T08:40:13.501Z,1023.69
2019-05-30T08:41:14.074Z,1023.71
2019-05-30T08:42:14.647Z,1023.69
2019-05-30T08:45:33.686Z,1023.71
2019-05-30T08:46:34.268Z,1023.68
2019-05-30T08:47:35.966Z,1023.76
2019-05-30T08:48:36.417Z,1023.73
2019-05-30T08:49:38.178Z,1023.69
2019-05-30T08:50:42.623Z,1023.73
2019-05-30T08:51:40.512Z,1023.73
2019-05-30T08:52:41.215Z,1023.64
2019-05-30T08:53:41.693Z,1023.66
2019-05-30T08:54:42.267Z,1023.68
2019-05-30T08:55:42.842Z,1023.71
2019-05-30T08:56:43.416Z,1023.71
2019-05-30T08:57:43.989Z,1023.72
2019-05-30T08:58:44.563Z,1023.69
2019-05-30T08:59:45.138Z,1023.66
2019-05-30T09:00:45.711Z,1023.65
2019-05-30T09:01:49.881Z,1023.65
2019-05-30T09:02:47.857Z,1023.65
2019-05-30T09:03:48.432Z,1023.63
2019-05-30T09:04:49.006Z,1023.70
2019-05-30T09:06:03.021Z,1023.65
2019-05-30T09:06:50.195Z,1023.68
2019-05-30T09:07:50.769Z,1023.63
2019-05-30T09:08:51.344Z,1023.65
2019-05-30T09:09:51.917Z,1023.67
2019-05-30T09:10:52.493Z,1023.62
2019-05-30T09:11:53.066Z,1023.71
2019-05-30T09:12:53.653Z,1023.71
2019-05-30T09:13:54.266Z,1023.68
2019-05-30T09:14:54.833Z,1023.74
2019-05-30T09:15:55.405Z,1023.63
2019-05-30T09:16:57.073Z,1023.62
2019-05-30T09:17:57.547Z,1023.68
2019-05-30T09:18:58.122Z,1023.54
2019-05-30T09:19:58.730Z,1023.64
2019-05-30T09:20:59.314Z,1023.57
2019-05-30T09:21:59.889Z,1023.59
2019-05-30T09:23:00.463Z,1023.67
2019-05-30T09:24:01.643Z,1023.60
2019-05-30T09:25:02.266Z,1023.66
2019-05-30T09:26:02.838Z,1023.59
2019-05-30T09:27:03.413Z,1023.65
2019-05-30T09:28:03.986Z,1023.58
2019-05-30T09:29:04.563Z,1023.61
2019-05-30T09:30:05.133Z,1023.60
2019-05-30T09:31:05.744Z,1023.65
2019-05-30T09:32:06.324Z,1023.63
2019-05-30T09:33:06.898Z,1023.57
2019-05-30T09:34:07.475Z,1023.61
2019-05-30T09:35:08.047Z,1023.62
2019-05-30T09:36:13.184Z,1023.71
2019-05-30T09:37:10.190Z,1023.62
2019-05-30T09:38:10.761Z,1023.54
2019-05-30T09:39:11.335Z,1023.60
2019-05-30T09:40:11.910Z,1023.66
2019-05-30T09:42:28.112Z,1023.57
2019-05-30T09:43:28.685Z,1023.64
2019-05-30T09:44:29.260Z,1023.58
2019-05-30T09:45:29.882Z,1023.71
2019-05-30T09:46:30.403Z,1023.61
2019-05-30T09:47:30.979Z,1023.57
2019-05-30T09:48:31.579Z,1023.60
2019-05-30T09:49:32.165Z,1023.58
2019-05-30T09:50:32.739Z,1023.57
2019-05-30T09:51:33.312Z,1023.64
2019-05-30T09:52:33.889Z,1023.60
2019-05-30T09:53:34.463Z,1023.64
2019-05-30T09:54:35.040Z,1023.64
2019-05-30T09:55:35.612Z,1023.61
2019-05-30T09:56:36.192Z,1023.61
2019-05-30T09:57:36.764Z,1023.66
2019-05-30T09:58:37.337Z,1023.63
2019-05-30T09:59:37.955Z,1023.57
2019-05-30T10:00:38.534Z,1023.61
2019-05-30T10:01:39.109Z,1023.59
2019-05-30T10:02:39.680Z,1023.67
2019-05-30T10:03:40.253Z,1023.61
2019-05-30T10:04:42.040Z,1023.62
2019-05-30T10:05:43.787Z,1023.63
2019-05-30T10:06:43.580Z,1023.61
2019-05-30T10:07:45.555Z,1023.59
2019-05-30T10:08:47.722Z,1023.59
2019-05-30T10:09:47.111Z,1023.58
2019-05-30T10:10:47.798Z,1023.56
2019-05-30T10:11:49.348Z,1023.61
2019-05-30T10:12:50.338Z,1023.59
2019-05-30T10:13:51.229Z,1023.57
2019-05-30T10:14:51.243Z,1023.55
2019-05-30T10:15:52.594Z,1023.62
2019-05-30T10:16:56.343Z,1023.57
2019-05-30T10:17:54.823Z,1023.60
2019-05-30T10:18:55.363Z,1023.60
2019-05-30T10:19:57.240Z,1023.60
2019-05-30T10:20:57.503Z,1023.58
2019-05-30T10:21:58.075Z,1023.57
2019-05-30T10:22:58.655Z,1023.57
2019-05-30T10:23:59.227Z,1023.58
2019-05-30T10:24:59.801Z,1023.52
2019-05-30T10:26:00.374Z,1023.56
2019-05-30T10:27:00.947Z,1023.54
2019-05-30T10:28:01.522Z,1023.50
2019-05-30T10:29:02.097Z,1023.50
2019-05-30T10:30:02.670Z,1023.52
2019-05-30T10:31:03.245Z,1023.48
2019-05-30T10:32:03.862Z,1023.56
2019-05-30T10:33:04.438Z,1023.52
2019-05-30T10:34:05.012Z,1023.50
2019-05-30T10:35:05.585Z,1023.54
2019-05-30T10:36:06.161Z,1023.44
2019-05-30T10:37:06.733Z,1023.43
2019-05-30T10:38:07.309Z,1023.45
2019-05-30T10:39:07.899Z,1023.48
2019-05-30T10:40:08.502Z,1023.46
2019-05-30T10:41:09.077Z,1023.47
2019-05-30T10:42:09.662Z,1023.48
2019-05-30T10:43:10.276Z,1023.53
2019-05-30T10:44:10.850Z,1023.50
2019-05-30T10:45:11.427Z,1023.44
2019-05-30T10:46:11.999Z,1023.46
2019-05-30T10:47:12.576Z,1023.46
2019-05-30T10:48:13.212Z,1023.47
2019-05-30T10:49:13.809Z,1023.48
2019-05-30T10:50:14.383Z,1023.49
2019-05-30T10:51:14.961Z,1023.50
2019-05-30T10:52:15.535Z,1023.45
2019-05-30T10:53:16.105Z,1023.53
2019-05-30T10:54:16.681Z,1023.48
2019-05-30T10:55:17.256Z,1023.51
2019-05-30T10:56:17.875Z,1023.42
2019-05-30T10:57:18.448Z,1023.40
2019-05-30T10:58:19.043Z,1023.41
2019-05-30T10:59:19.641Z,1023.42
2019-05-30T11:00:20.225Z,1023.50
2019-05-30T11:01:20.789Z,1023.51
2019-05-30T11:02:21.364Z,1023.43
2019-05-30T11:03:21.936Z,1023.41
2019-05-30T11:04:22.512Z,1023.46
2019-05-30T11:05:23.087Z,1023.46
2019-05-30T11:06:23.660Z,1023.51
2019-05-30T11:07:24.236Z,1023.44
2019-05-30T11:08:24.861Z,1023.47
2019-05-30T11:09:25.437Z,1023.45
2019-05-30T11:10:26.011Z,1023.47
2019-05-30T11:11:26.588Z,1023.41
2019-05-30T11:12:27.202Z,1023.38
2019-05-30T11:13:27.777Z,1023.36
2019-05-30T11:14:28.351Z,1023.43
2019-05-30T11:15:28.925Z,1023.48
2019-05-30T11:16:29.500Z,1023.41
2019-05-30T11:17:30.075Z,1023.45
2019-05-30T11:18:30.649Z,1023.46
2019-05-30T11:19:31.223Z,1023.44
2019-05-30T11:20:31.804Z,1023.41
2019-05-30T11:21:32.371Z,1023.48
2019-05-30T11:22:32.965Z,1023.41
2019-05-30T11:23:33.562Z,1023.45
2019-05-30T11:24:34.137Z,1023.45
2019-05-30T11:25:34.715Z,1023.43
2019-05-30T11:26:35.287Z,1023.42
2019-05-30T11:27:35.860Z,1023.38
2019-05-30T11:28:36.444Z,1023.42
2019-05-30T11:29:37.009Z,1023.43
2019-05-30T11:30:37.586Z,1023.43
2019-05-30T11:31:38.157Z,1023.42
2019-05-30T11:32:38.731Z,1023.47
2019-05-30T11:33:39.311Z,1023.45
2019-05-30T11:34:39.925Z,1023.42
2019-05-30T11:35:40.501Z,1023.36
2019-05-30T11:36:41.075Z,1023.35
2019-05-30T11:37:41.650Z,1023.38
2019-05-30T11:38:42.225Z,1023.38
2019-05-30T11:39:42.797Z,1023.29
2019-05-30T11:40:43.371Z,1023.35
2019-05-30T11:41:43.948Z,1023.37
2019-05-30T11:42:44.523Z,1023.30
2019-05-30T11:43:45.100Z,1023.34
2019-05-30T11:44:45.672Z,1023.27
2019-05-30T11:45:46.243Z,1023.31
2019-05-30T11:46:46.845Z,1023.25
2019-05-30T11:47:47.455Z,1023.26
2019-05-30T11:48:48.065Z,1023.29
2019-05-30T11:49:49.550Z,1023.21
2019-05-30T11:50:50.759Z,1023.22
2019-05-30T11:51:51.704Z,1023.23
2019-05-30T11:52:51.758Z,1023.27
2019-05-30T11:53:51.967Z,1023.17
2019-05-30T11:54:52.822Z,1023.25
2019-05-30T11:55:54.248Z,1023.16
2019-05-30T11:56:54.723Z,1023.21
2019-05-30T11:57:56.220Z,1023.18
2019-05-30T11:58:58.015Z,1023.21
2019-05-30T12:00:12.193Z,1023.26
2019-05-30T12:01:12.810Z,1023.16
2019-05-30T12:02:13.387Z,1023.16
2019-05-30T12:03:13.960Z,1023.06
2019-05-30T12:04:14.737Z,1023.21
2019-05-30T12:05:15.356Z,1023.14
2019-05-30T12:06:15.928Z,1023.15
2019-05-30T12:07:16.705Z,1023.16
2019-05-30T12:08:17.277Z,1023.10
2019-05-30T12:10:33.277Z,1023.12
2019-05-30T12:11:33.896Z,1023.09
2019-05-30T12:12:34.918Z,1022.99
2019-05-30T12:13:35.705Z,1023.12
2019-05-30T12:15:53.426Z,1023.03
2019-05-30T12:16:55.184Z,1023.03
2019-05-30T12:17:55.543Z,1023.02
2019-05-30T12:18:56.119Z,1023.01
2019-05-30T12:19:57.607Z,1023.03
2019-05-30T12:20:58.169Z,1023.00
2019-05-30T12:21:59.875Z,1023.00
2019-05-30T12:23:00.315Z,1023.01
2019-05-30T12:24:02.401Z,1023.01